Akune, Japan

8:22 PM JST on July 31, 2015 (GMT +0900)
Kagoshima | | Change Station
CLOSE
Current Station
Airport
Location: Kagoshima Airport,
Elevation: 902 ft
Nearby Weather Stations

Elev 902 ft 31.80 °N, 130.72 °E | Updated 22 minutes ago

Partly Cloudy
Partly Cloudy
81 °F
Feels Like 87 °F
N
8
Wind Variable Wind from West

Today
High -- | Low -- °F
--% Chance of Precip.
Yesterday
High -- | Low -- °F
Precip. -- in
5:33 AM 7:17 PM
Full, 100% visible
Pressure 29.89 in
Visibility 6.2 miles
Clouds Few 3500 ft
Heat Index 87 °F
Dew Point 77 °F
Humidity 89%
Rainfall 0.00 in
Snow Depth Not available.
UV 0 out of 12
Pollen Not available.
Air Quality Not available.
Flu Activity Not available.
METAR RJFK 311100Z 26007KT 9999 FEW035 27/25 Q1012 RMK 1CU035 A2989

More Conditions Fewer Conditions

Pressure 29.89 in
Visibility 6.2 miles
Clouds Few 3500 ft
Heat Index 87 °F
Dew Point 77 °F
Humidity 89%
Rainfall 0.00 in
Snow Depth Not available.
UV 0 out of 12
Pollen Not available.
Air Quality Not available.
Flu Activity Not available.
METAR RJFK 311100Z 26007KT 9999 FEW035 27/25 Q1012 RMK 1CU035 A2989

More Conditions Fewer Conditions

10-Day Weather Forecast

×

Almanac

Astronomy

Jul. 31, 2015 Rise Set
Actual Time
Civil Twilight
Nautical Twilight
Astronomical Twilight
Moon
Length of Visible Light
Length of Day
Tomorrow will be .
, % of the Moon is Illuminated

Today's Extremes

Country Highs Country Lows

Community

WunderPhotos

Upload Photos

1,842,645 photos uploaded!

WunderBlogs® & News

Nearby

Air Quality

  Air Quality AQ Index Pollutant
Not available.

Snow Depth

Station Depth Elevation

Earthquake Activity

City Distance Mag. Time & Date
Minimum magnitude displayed is 2.5.

Coastal Water Temperatures

Place Temperature

Stations

Nearby Weather Stations

Station Location Temp. Windchill Dew Point Humidity Wind Precip. Elev Updated Type